AXM110 OLBA-OSDI
Flight info
| Callsign | AXM110 |
|---|---|
| Flight time | 0h 28m |
| Altitude | 14000 |
| Route | LEBOR2F LEBOR LIMA1C |
| Aircraft | A333/H-V/N |
Departure
| Time | 2026-04-24 15:12 |
|---|---|
| Airport | Beirut Rafic Hariri International Airport (OLBA) |
Arrival
| Time | 2026-04-24 15:40 |
|---|---|
| Airport | Damascus International Airport (OSDI) |
| Time | Latitude | Longitude | Altitude | Speed | Heading |
|---|---|---|---|---|---|
| 2026-04-24 14:56 | 33.82417 | 35.49463 | 74 ft | 0 kts | 285° |
| 2026-04-24 15:05 | 33.82411 | 35.49489 | 74 ft | 3 kts | 285° |
| 2026-04-24 15:06 | 33.82408 | 35.49504 | 73 ft | 1 kts | 282° |
| 2026-04-24 15:06 | 33.82406 | 35.49516 | 73 ft | 1 kts | 273° |
| 2026-04-24 15:06 | 33.82406 | 35.49527 | 73 ft | 1 kts | 256° |
| 2026-04-24 15:06 | 33.82408 | 35.49537 | 73 ft | 1 kts | 242° |
| 2026-04-24 15:07 | 33.82412 | 35.49545 | 72 ft | 1 kts | 227° |
| 2026-04-24 15:07 | 33.82418 | 35.49551 | 72 ft | 1 kts | 213° |
| 2026-04-24 15:07 | 33.82424 | 35.49556 | 72 ft | 1 kts | 200° |
| 2026-04-24 15:07 | 33.82431 | 35.49559 | 72 ft | 0 kts | 195° |
| 2026-04-24 15:08 | 33.82432 | 35.49559 | 72 ft | 0 kts | 195° |
| 2026-04-24 15:09 | 33.82428 | 35.49558 | 72 ft | 4 kts | 195° |
| 2026-04-24 15:09 | 33.82339 | 35.49526 | 72 ft | 22 kts | 204° |
| 2026-04-24 15:09 | 33.82171 | 35.49423 | 60 ft | 27 kts | 167° |
| 2026-04-24 15:09 | 33.82036 | 35.49486 | 68 ft | 27 kts | 218° |
| 2026-04-24 15:10 | 33.81833 | 35.49308 | 60 ft | 37 kts | 216° |
| 2026-04-24 15:10 | 33.81622 | 35.49130 | 58 ft | 34 kts | 215° |
| 2026-04-24 15:10 | 33.81550 | 35.49069 | 60 ft | 13 kts | 216° |
| 2026-04-24 15:10 | 33.81435 | 35.48971 | 66 ft | 26 kts | 216° |
| 2026-04-24 15:11 | 33.81245 | 35.48810 | 73 ft | 39 kts | 215° |
| 2026-04-24 15:11 | 33.81295 | 35.48639 | 75 ft | 36 kts | 347° |
| 2026-04-24 15:11 | 33.81684 | 35.48534 | 63 ft | 93 kts | 347° |
| 2026-04-24 15:11 | 33.82587 | 35.48285 | 50 ft | 168 kts | 345° |
| 2026-04-24 15:12 | 33.83809 | 35.47926 | 695 ft | 182 kts | 347° |
| 2026-04-24 15:12 | 33.86060 | 35.46509 | 2893 ft | 182 kts | 330° |
| 2026-04-24 15:12 | 33.87117 | 35.45803 | 3836 ft | 165 kts | 330° |
| 2026-04-24 15:13 | 33.88256 | 35.45273 | 4084 ft | 180 kts | 342° |
| 2026-04-24 15:13 | 33.89522 | 35.44755 | 4358 ft | 194 kts | 340° |
| 2026-04-24 15:13 | 33.90903 | 35.44152 | 4556 ft | 215 kts | 340° |
| 2026-04-24 15:13 | 33.92408 | 35.43524 | 5086 ft | 226 kts | 341° |
| 2026-04-24 15:14 | 33.93931 | 35.42879 | 5891 ft | 225 kts | 340° |
| 2026-04-24 15:14 | 33.95502 | 35.42200 | 6293 ft | 242 kts | 340° |
| 2026-04-24 15:14 | 33.97192 | 35.41469 | 6699 ft | 260 kts | 340° |
| 2026-04-24 15:14 | 33.98994 | 35.40689 | 7149 ft | 277 kts | 340° |
| 2026-04-24 15:15 | 34.00897 | 35.39868 | 7868 ft | 282 kts | 340° |
| 2026-04-24 15:15 | 34.02867 | 35.39196 | 8645 ft | 286 kts | 355° |
| 2026-04-24 15:15 | 34.04920 | 35.39564 | 9380 ft | 292 kts | 22° |
| 2026-04-24 15:15 | 34.06629 | 35.41026 | 10051 ft | 299 kts | 49° |
| 2026-04-24 15:16 | 34.07717 | 35.43358 | 10463 ft | 317 kts | 72° |
| 2026-04-24 15:16 | 34.08306 | 35.46120 | 10756 ft | 336 kts | 82° |
| 2026-04-24 15:16 | 34.08183 | 35.49062 | 11032 ft | 352 kts | 105° |
| 2026-04-24 15:16 | 34.07547 | 35.52013 | 11740 ft | 357 kts | 105° |
| 2026-04-24 15:17 | 34.06913 | 35.54980 | 12415 ft | 362 kts | 106° |
| 2026-04-24 15:17 | 34.06267 | 35.57972 | 13117 ft | 367 kts | 106° |
| 2026-04-24 15:17 | 34.05603 | 35.61060 | 13828 ft | 369 kts | 107° |
| 2026-04-24 15:17 | 34.04961 | 35.64041 | 14098 ft | 369 kts | 107° |
| 2026-04-24 15:18 | 34.04316 | 35.67034 | 14041 ft | 367 kts | 107° |
| 2026-04-24 15:18 | 34.03666 | 35.70037 | 14118 ft | 368 kts | 107° |
| 2026-04-24 15:18 | 34.03025 | 35.73001 | 14075 ft | 370 kts | 107° |
| 2026-04-24 15:18 | 34.02369 | 35.76019 | 14016 ft | 367 kts | 107° |
| 2026-04-24 15:19 | 34.01717 | 35.79022 | 14035 ft | 367 kts | 107° |
| 2026-04-24 15:19 | 34.01067 | 35.82006 | 14038 ft | 368 kts | 107° |
| 2026-04-24 15:19 | 34.00412 | 35.85012 | 14043 ft | 368 kts | 107° |
| 2026-04-24 15:19 | 33.99745 | 35.88068 | 14059 ft | 367 kts | 107° |
| 2026-04-24 15:20 | 33.99077 | 35.91121 | 14044 ft | 367 kts | 107° |
| 2026-04-24 15:20 | 33.98426 | 35.94098 | 14049 ft | 366 kts | 107° |
| 2026-04-24 15:20 | 33.97762 | 35.97129 | 14061 ft | 367 kts | 107° |
| 2026-04-24 15:20 | 33.97101 | 36.00142 | 14052 ft | 367 kts | 107° |
| 2026-04-24 15:21 | 33.96443 | 36.03141 | 14067 ft | 368 kts | 107° |
| 2026-04-24 15:21 | 33.95784 | 36.06136 | 14061 ft | 368 kts | 107° |
| 2026-04-24 15:21 | 33.95122 | 36.09136 | 14070 ft | 369 kts | 107° |
| 2026-04-24 15:21 | 33.94458 | 36.12149 | 14066 ft | 369 kts | 107° |
| 2026-04-24 15:22 | 33.93796 | 36.15142 | 14069 ft | 368 kts | 107° |
| 2026-04-24 15:22 | 33.93136 | 36.18134 | 14066 ft | 368 kts | 107° |
| 2026-04-24 15:22 | 33.92459 | 36.21185 | 14070 ft | 368 kts | 107° |
| 2026-04-24 15:23 | 33.91091 | 36.27356 | 14069 ft | 369 kts | 107° |
| 2026-04-24 15:23 | 33.89736 | 36.33453 | 14069 ft | 368 kts | 107° |
| 2026-04-24 15:23 | 33.89053 | 36.36518 | 14067 ft | 367 kts | 107° |
| 2026-04-24 15:24 | 33.87017 | 36.45644 | 14061 ft | 368 kts | 107° |
| 2026-04-24 15:25 | 33.85941 | 36.50786 | 14041 ft | 370 kts | 99° |
| 2026-04-24 15:25 | 33.87711 | 36.57721 | 14043 ft | 376 kts | 48° |
| 2026-04-24 15:26 | 33.93431 | 36.64233 | 12956 ft | 355 kts | 42° |
| 2026-04-24 15:27 | 33.98306 | 36.69675 | 12035 ft | 301 kts | 43° |
| 2026-04-24 15:27 | 34.02750 | 36.75314 | 9972 ft | 303 kts | 71° |
| 2026-04-24 15:28 | 34.00575 | 36.83519 | 7830 ft | 268 kts | 154° |
| 2026-04-24 15:29 | 33.97378 | 36.85882 | 7850 ft | 270 kts | 149° |
| 2026-04-24 15:30 | 33.92069 | 36.87569 | 7812 ft | 268 kts | 197° |
| 2026-04-24 15:31 | 33.85799 | 36.84508 | 6443 ft | 268 kts | 204° |
| 2026-04-24 15:32 | 33.78490 | 36.80293 | 5017 ft | 267 kts | 206° |
| 2026-04-24 15:33 | 33.71797 | 36.76368 | 4990 ft | 268 kts | 206° |
| 2026-04-24 15:33 | 33.66756 | 36.73415 | 4988 ft | 266 kts | 206° |
| 2026-04-24 15:34 | 33.63421 | 36.71465 | 4984 ft | 265 kts | 206° |
| 2026-04-24 15:35 | 33.58492 | 36.68585 | 4591 ft | 249 kts | 207° |
| 2026-04-24 15:35 | 33.55499 | 36.66837 | 4087 ft | 226 kts | 207° |
| 2026-04-24 15:35 | 33.54095 | 36.66018 | 4101 ft | 218 kts | 207° |
| 2026-04-24 15:36 | 33.52718 | 36.65209 | 4101 ft | 218 kts | 209° |
| 2026-04-24 15:36 | 33.50653 | 36.62709 | 3999 ft | 193 kts | 229° |
| 2026-04-24 15:36 | 33.49809 | 36.61566 | 3805 ft | 173 kts | 229° |
| 2026-04-24 15:37 | 33.49034 | 36.60522 | 3542 ft | 160 kts | 229° |
| 2026-04-24 15:37 | 33.48302 | 36.59539 | 3323 ft | 156 kts | 230° |
| 2026-04-24 15:37 | 33.47819 | 36.58890 | 3191 ft | 155 kts | 230° |
| 2026-04-24 15:37 | 33.46849 | 36.57586 | 2926 ft | 153 kts | 229° |
| 2026-04-24 15:38 | 33.46150 | 36.56643 | 2733 ft | 151 kts | 229° |
| 2026-04-24 15:38 | 33.45456 | 36.55710 | 2541 ft | 149 kts | 228° |
| 2026-04-24 15:38 | 33.44771 | 36.54792 | 2353 ft | 148 kts | 227° |
| 2026-04-24 15:38 | 33.44082 | 36.53870 | 2157 ft | 147 kts | 230° |
| 2026-04-24 15:39 | 33.43401 | 36.52961 | 2009 ft | 141 kts | 230° |
| 2026-04-24 15:39 | 33.42858 | 36.52236 | 2004 ft | 90 kts | 228° |
| 2026-04-24 15:39 | 33.42553 | 36.51822 | 2007 ft | 56 kts | 227° |
| 2026-04-24 15:39 | 33.42256 | 36.51519 | 2009 ft | 54 kts | 201° |
| 2026-04-24 15:40 | 33.42004 | 36.51374 | 2008 ft | 34 kts | 222° |
| 2026-04-24 15:40 | 33.41825 | 36.51414 | 2011 ft | 28 kts | 137° |
| 2026-04-24 15:40 | 33.41665 | 36.51554 | 2013 ft | 28 kts | 185° |
| 2026-04-24 15:40 | 33.41658 | 36.51415 | 2016 ft | 22 kts | 315° |
| 2026-04-24 15:41 | 33.41608 | 36.51268 | 2016 ft | 15 kts | 216° |
| 2026-04-24 15:41 | 33.41521 | 36.51323 | 2020 ft | 16 kts | 123° |
| 2026-04-24 15:41 | 33.41424 | 36.51387 | 2025 ft | 16 kts | 176° |
| 2026-04-24 15:41 | 33.41304 | 36.51459 | 2025 ft | 19 kts | 139° |
| 2026-04-24 15:42 | 33.41238 | 36.51512 | 2023 ft | 9 kts | 175° |
| 2026-04-24 15:42 | 33.41204 | 36.51496 | 2022 ft | 1 kts | 218° |
| 2026-04-24 15:42 | 33.41192 | 36.51482 | 2022 ft | 2 kts | 224° |
| 2026-04-24 15:42 | 33.41185 | 36.51473 | 2022 ft | 0 kts | 227° |
| 2026-04-24 15:43 | 33.41184 | 36.51472 | 2022 ft | 0 kts | 227° |